Time;durP1;ratioP1;P1;durP2;ratioP2;P2;SDS_P1;SDS_P2;PMS_P1;PMS_P2;Temp;Humidity;BMP_temperature;BMP_pressure;BME280_temperature;BME280_humidity;BME280_pressure;Samples;Min_cycle;Max_cycle;Signal;HPM_P1;HPM_P2
2021/12/20 00:02:21;;;;;;;2.23;2.03;;;4.30;98.00;;;;;;5071459;28;20577;-69
2021/12/20 00:04:52;;;;;;;1.13;1.10;;;4.30;98.00;;;;;;5071634;28;20525;-69
2021/12/20 00:07:19;;;;;;;1.73;1.23;;;4.30;98.00;;;;;;5070857;28;20614;-69
2021/12/20 00:09:47;;;;;;;1.50;1.40;;;4.20;98.00;;;;;;5070576;28;20484;-69
2021/12/20 00:12:14;;;;;;;3.10;2.20;;;4.10;98.00;;;;;;5070253;28;20508;-69
2021/12/20 00:14:41;;;;;;;1.50;1.10;;;4.30;98.00;;;;;;5070523;28;20496;-69
2021/12/20 00:17:09;;;;;;;1.20;1.13;;;4.40;98.00;;;;;;5071613;28;20881;-69
2021/12/20 00:19:36;;;;;;;1.37;1.27;;;4.30;98.00;;;;;;5071550;28;20499;-69
2021/12/20 00:22:05;;;;;;;1.67;1.47;;;4.40;98.00;;;;;;5071560;28;20539;-69
2021/12/20 00:24:32;;;;;;;1.20;1.13;;;4.40;98.00;;;;;;5070429;28;20458;-69
2021/12/20 00:27:01;;;;;;;2.43;2.23;;;4.30;98.00;;;;;;5071278;28;20514;-69
2021/12/20 00:29:28;;;;;;;1.40;1.20;;;4.20;98.00;;;;;;5071577;28;20855;-69
2021/12/20 00:31:55;;;;;;;2.00;1.47;;;4.20;98.00;;;;;;5070346;28;20489;-69
2021/12/20 00:34:22;;;;;;;3.63;3.07;;;4.20;98.00;;;;;;5071578;28;20500;-69
2021/12/20 00:36:57;;;;;;;2.10;1.20;;;4.10;98.00;;;;;;5071357;28;20489;-69
2021/12/20 00:42:10;;;;;;;5.93;1.33;;;4.10;98.00;;;;;;5070473;28;20549;-69
2021/12/20 00:44:37;;;;;;;4.30;1.53;;;4.20;98.00;;;;;;5071334;28;20490;-69
2021/12/20 00:47:04;;;;;;;3.60;1.60;;;4.20;98.00;;;;;;5071315;28;20498;-69
2021/12/20 00:49:33;;;;;;;2.17;1.50;;;4.30;98.00;;;;;;5071519;28;20514;-69
2021/12/20 00:52:05;;;;;;;3.17;1.70;;;4.40;98.00;;;;;;5070643;28;20491;-69
2021/12/20 00:54:37;;;;;;;1.10;1.10;;;4.50;98.00;;;;;;5071188;28;20540;-69
2021/12/20 00:57:04;;;;;;;1.20;1.10;;;4.60;98.00;;;;;;5070251;28;20868;-69
2021/12/20 00:59:31;;;;;;;2.27;1.67;;;4.60;98.00;;;;;;5070193;28;20460;-69
2021/12/20 01:01:58;;;;;;;1.23;1.20;;;4.70;98.00;;;;;;5071189;28;20516;-69
2021/12/20 01:04:25;;;;;;;1.63;1.50;;;4.80;98.00;;;;;;5070204;28;20866;-69
2021/12/20 01:06:53;;;;;;;1.67;1.47;;;4.90;98.00;;;;;;5070996;28;20497;-69
2021/12/20 01:09:20;;;;;;;1.30;1.20;;;4.90;98.00;;;;;;5070808;28;21157;-69
2021/12/20 01:11:51;;;;;;;1.40;1.30;;;4.70;98.00;;;;;;5070914;28;20941;-69
2021/12/20 01:14:22;;;;;;;1.10;1.03;;;4.60;98.00;;;;;;5069640;28;20460;-69
2021/12/20 01:16:50;;;;;;;2.23;1.83;;;4.50;98.00;;;;;;5070936;28;20508;-69
2021/12/20 01:19:17;;;;;;;1.30;1.20;;;4.40;98.00;;;;;;5071134;28;20461;-69
2021/12/20 01:21:47;;;;;;;1.20;1.03;;;4.40;98.00;;;;;;5074202;28;20449;-69
2021/12/20 01:24:14;;;;;;;1.10;1.10;;;4.40;98.00;;;;;;5074037;28;20493;-69
2021/12/20 01:26:41;;;;;;;1.10;0.93;;;4.40;98.00;;;;;;5074326;28;20542;-69
2021/12/20 01:29:09;;;;;;;1.50;1.33;;;4.30;98.00;;;;;;5074467;28;20492;-69
2021/12/20 01:31:36;;;;;;;1.30;1.30;;;4.20;98.00;;;;;;5074278;28;20490;-69
2021/12/20 01:34:03;;;;;;;1.20;1.20;;;4.20;98.00;;;;;;5074329;28;20496;-69
2021/12/20 01:36:30;;;;;;;1.80;1.77;;;4.30;98.00;;;;;;5074131;28;20491;-69
2021/12/20 01:38:58;;;;;;;1.10;0.90;;;4.40;98.00;;;;;;5074264;28;20599;-69
2021/12/20 01:41:25;;;;;;;1.20;1.07;;;4.50;98.00;;;;;;5074062;28;20494;-69
2021/12/20 01:43:54;;;;;;;1.23;1.20;;;4.60;98.00;;;;;;5074105;28;20495;-69
2021/12/20 01:46:23;;;;;;;1.20;1.13;;;4.60;98.00;;;;;;5074092;28;20552;-69
2021/12/20 01:48:52;;;;;;;1.10;0.90;;;4.50;98.00;;;;;;5073899;28;20458;-69
2021/12/20 01:51:43;;;;;;;1.10;1.00;;;4.50;98.00;;;;;;5073835;28;20507;-69
2021/12/20 01:54:11;;;;;;;1.27;1.23;;;4.50;98.00;;;;;;5073944;28;20459;-69
2021/12/20 01:56:41;;;;;;;2.27;2.07;;;4.50;98.00;;;;;;5073822;28;20521;-69
2021/12/20 01:59:12;;;;;;;1.10;1.00;;;4.50;98.00;;;;;;5073857;28;20522;-69
2021/12/20 02:01:41;;;;;;;1.20;1.10;;;4.40;98.00;;;;;;5073846;28;20458;-69
2021/12/20 02:04:09;;;;;;;1.83;1.73;;;4.30;98.00;;;;;;5073846;28;20571;-69
2021/12/20 02:06:39;;;;;;;1.10;1.00;;;4.20;98.00;;;;;;5073880;28;20466;-69
2021/12/20 02:09:08;;;;;;;1.20;1.00;;;4.10;98.00;;;;;;5072421;28;20543;-69
2021/12/20 02:11:36;;;;;;;1.80;1.30;;;4.20;98.00;;;;;;5073745;28;20917;-69
2021/12/20 02:14:03;;;;;;;1.10;0.90;;;4.20;98.00;;;;;;5073797;28;20491;-69
2021/12/20 02:16:30;;;;;;;1.40;1.40;;;4.20;98.00;;;;;;5073626;28;20450;-69
2021/12/20 02:19:01;;;;;;;1.40;1.30;;;4.30;98.00;;;;;;5072397;28;20457;-69
2021/12/20 02:21:30;;;;;;;1.30;1.20;;;4.30;98.00;;;;;;5073559;28;20890;-69
2021/12/20 02:23:57;;;;;;;2.17;1.50;;;4.30;98.00;;;;;;5073474;28;20532;-69
2021/12/20 02:26:24;;;;;;;1.10;1.00;;;4.20;98.00;;;;;;5073154;28;20533;-69
2021/12/20 02:28:53;;;;;;;1.70;1.60;;;4.20;98.00;;;;;;5073589;28;20479;-69
2021/12/20 02:37:26;;;;;;;2.43;1.30;;;4.30;98.00;;;;;;5072160;28;20452;-69
2021/12/20 02:39:54;;;;;;;1.70;1.37;;;4.30;98.00;;;;;;5072777;28;20512;-69
2021/12/20 02:42:33;;;;;;;2.40;1.63;;;4.30;98.00;;;;;;5072537;28;20536;-69
2021/12/20 02:45:11;;;;;;;1.20;1.20;;;4.40;98.00;;;;;;5072925;28;20541;-69
2021/12/20 02:47:40;;;;;;;1.37;1.30;;;4.40;98.00;;;;;;5072760;28;20531;-69
2021/12/20 02:50:09;;;;;;;1.10;0.90;;;4.40;98.00;;;;;;5072628;28;20481;-69
2021/12/20 02:52:37;;;;;;;1.97;1.47;;;4.60;98.00;;;;;;5072771;28;21012;-69
2021/12/20 02:55:05;;;;;;;1.10;0.93;;;4.60;98.00;;;;;;5072754;28;20492;-69
2021/12/20 02:57:34;;;;;;;1.10;0.90;;;4.50;98.00;;;;;;5072643;28;20505;-69
2021/12/20 03:00:01;;;;;;;1.10;1.00;;;4.60;98.00;;;;;;5072638;28;20481;-69
2021/12/20 03:02:28;;;;;;;1.40;1.20;;;4.50;98.00;;;;;;5071224;28;20493;-69
2021/12/20 03:04:55;;;;;;;4.70;3.80;;;4.50;98.00;;;;;;5072447;28;20454;-69
2021/12/20 03:07:26;;;;;;;1.10;0.90;;;4.40;98.00;;;;;;5072236;28;20500;-69
2021/12/20 03:10:01;;;;;;;1.60;1.50;;;4.40;98.00;;;;;;5072547;28;20932;-69
2021/12/20 03:12:30;;;;;;;3.20;1.73;;;4.40;98.00;;;;;;5071186;28;20822;-69
2021/12/20 03:15:03;;;;;;;1.20;1.07;;;4.50;98.00;;;;;;5072418;28;20467;-69
2021/12/20 03:17:30;;;;;;;1.67;1.30;;;4.60;98.00;;;;;;5072327;28;20992;-69
2021/12/20 03:19:57;;;;;;;1.87;1.53;;;4.70;98.00;;;;;;5072245;28;20457;-69
2021/12/20 03:22:24;;;;;;;1.30;1.27;;;4.80;98.00;;;;;;5070891;28;20463;-69
2021/12/20 03:24:51;;;;;;;1.20;1.20;;;4.70;98.00;;;;;;5072125;28;20996;-69
2021/12/20 03:27:20;;;;;;;2.50;1.57;;;4.60;98.00;;;;;;5072093;28;20539;-69
2021/12/20 03:29:47;;;;;;;1.30;1.10;;;4.50;98.00;;;;;;5072418;28;20856;-69
2021/12/20 03:32:14;;;;;;;1.20;1.10;;;4.40;98.00;;;;;;5072324;28;20965;-69
2021/12/20 03:34:44;;;;;;;1.63;1.57;;;4.40;98.00;;;;;;5072133;28;21016;-69
2021/12/20 03:37:11;;;;;;;1.13;1.07;;;4.40;98.00;;;;;;5072197;28;20492;-69
2021/12/20 03:39:38;;;;;;;1.10;1.10;;;4.40;98.00;;;;;;5072350;28;20501;-69
2021/12/20 03:42:06;;;;;;;1.10;1.00;;;4.40;98.00;;;;;;5071548;28;20933;-69
2021/12/20 03:44:38;;;;;;;1.40;1.03;;;4.40;98.00;;;;;;5072050;28;20576;-69
2021/12/20 03:47:05;;;;;;;2.17;1.60;;;4.40;98.00;;;;;;5072135;28;20455;-69
2021/12/20 03:49:32;;;;;;;1.87;1.43;;;4.30;98.00;;;;;;5072035;28;20543;-69
2021/12/20 03:52:00;;;;;;;2.33;1.80;;;4.20;98.00;;;;;;5071794;28;21031;-69
2021/12/20 03:54:27;;;;;;;1.37;1.20;;;4.20;98.00;;;;;;5071883;28;20534;-69
2021/12/20 03:56:54;;;;;;;1.80;1.70;;;4.20;98.00;;;;;;5071673;28;20549;-69
2021/12/20 03:59:21;;;;;;;1.20;1.13;;;4.30;98.00;;;;;;5071735;28;20490;-69
2021/12/20 04:01:50;;;;;;;1.10;0.90;;;4.40;98.00;;;;;;5071597;28;20513;-69
2021/12/20 04:04:17;;;;;;;1.57;1.20;;;4.30;98.00;;;;;;5071444;28;20515;-69
2021/12/20 04:06:44;;;;;;;1.70;1.30;;;4.20;98.00;;;;;;5071776;28;20511;-69
2021/12/20 04:09:11;;;;;;;1.80;1.53;;;4.30;98.00;;;;;;5071538;28;20535;-68
2021/12/20 04:11:38;;;;;;;1.20;1.10;;;4.10;98.00;;;;;;5071577;28;20493;-69
2021/12/20 04:14:08;;;;;;;1.10;1.00;;;4.00;98.00;;;;;;5071478;28;20497;-69
2021/12/20 04:16:36;;;;;;;2.27;1.20;;;4.00;98.00;;;;;;5071574;28;20492;-69
2021/12/20 04:19:06;;;;;;;2.90;2.13;;;4.10;98.00;;;;;;5071503;28;20451;-69
2021/12/20 04:21:33;;;;;;;1.10;1.00;;;4.20;98.00;;;;;;5071462;28;20506;-69
2021/12/20 04:24:00;;;;;;;1.60;1.20;;;4.30;98.00;;;;;;5071351;28;20522;-69
2021/12/20 04:26:27;;;;;;;1.30;1.20;;;4.50;98.00;;;;;;5071526;28;20959;-69
2021/12/20 04:28:54;;;;;;;3.77;2.40;;;4.60;98.00;;;;;;5071561;28;20945;-69
2021/12/20 04:31:24;;;;;;;1.40;1.10;;;4.60;98.00;;;;;;5071390;28;20469;-68
2021/12/20 04:33:52;;;;;;;2.80;1.73;;;4.50;98.00;;;;;;5071304;28;20457;-69
2021/12/20 04:36:20;;;;;;;3.57;1.70;;;4.40;98.00;;;;;;5071368;28;20457;-69
2021/12/20 04:38:47;;;;;;;1.10;1.00;;;4.30;98.00;;;;;;5071268;28;20536;-69
2021/12/20 04:41:14;;;;;;;1.40;1.00;;;4.20;98.00;;;;;;5071336;28;20462;-69
2021/12/20 04:43:41;;;;;;;1.10;0.90;;;4.20;98.00;;;;;;5071175;28;20579;-69
2021/12/20 04:46:08;;;;;;;1.93;1.83;;;4.10;98.00;;;;;;5070914;28;20489;-69
2021/12/20 04:48:35;;;;;;;1.10;1.00;;;4.10;98.00;;;;;;5070475;28;20497;-69
2021/12/20 04:51:02;;;;;;;5.10;1.50;;;4.00;98.00;;;;;;5069559;28;20491;-69
2021/12/20 04:53:31;;;;;;;1.10;1.00;;;4.00;98.00;;;;;;5071597;28;20973;-69
2021/12/20 04:55:58;;;;;;;3.63;1.60;;;4.20;98.00;;;;;;5075235;28;20907;-69
2021/12/20 04:58:25;;;;;;;1.10;0.97;;;4.20;98.00;;;;;;5074453;28;20490;-69
2021/12/20 05:00:52;;;;;;;1.20;1.13;;;4.10;98.00;;;;;;5075089;28;20543;-69
2021/12/20 05:03:19;;;;;;;1.57;1.20;;;4.10;98.00;;;;;;5074845;28;20513;-69
2021/12/20 05:05:46;;;;;;;4.20;1.57;;;4.20;98.00;;;;;;5075128;28;20452;-69
2021/12/20 05:08:15;;;;;;;1.87;1.30;;;4.30;98.00;;;;;;5074753;28;20498;-69
2021/12/20 05:10:43;;;;;;;2.20;2.00;;;4.40;98.00;;;;;;5074896;28;20462;-69
2021/12/20 05:13:12;;;;;;;1.20;1.10;;;4.50;98.00;;;;;;5074964;28;20458;-69
2021/12/20 05:15:41;;;;;;;1.10;1.00;;;4.40;98.00;;;;;;5075009;28;20457;-69
2021/12/20 05:18:09;;;;;;;1.10;1.00;;;4.30;98.00;;;;;;5074741;28;20805;-69
2021/12/20 05:20:37;;;;;;;3.77;1.50;;;4.20;98.00;;;;;;5074484;28;20515;-69
2021/12/20 05:23:07;;;;;;;1.10;0.90;;;4.20;98.00;;;;;;5074256;28;20503;-69
2021/12/20 05:25:34;;;;;;;1.40;1.40;;;4.10;98.00;;;;;;5074599;28;20538;-69
2021/12/20 05:28:03;;;;;;;2.70;1.73;;;4.00;98.00;;;;;;5074360;28;20489;-69
2021/12/20 05:30:31;;;;;;;1.20;1.10;;;4.00;98.00;;;;;;5074249;28;20489;-69
2021/12/20 05:32:58;;;;;;;1.10;1.00;;;4.00;98.00;;;;;;5074198;28;20462;-69
2021/12/20 05:35:25;;;;;;;2.47;1.77;;;4.00;98.00;;;;;;5074443;28;20455;-69
2021/12/20 05:37:52;;;;;;;1.10;1.10;;;3.90;98.00;;;;;;5074344;28;20822;-69
2021/12/20 05:40:20;;;;;;;1.60;1.33;;;3.80;98.00;;;;;;5074123;28;20548;-69
2021/12/20 05:42:48;;;;;;;1.53;1.50;;;4.00;98.00;;;;;;5074308;28;20466;-69
2021/12/20 05:45:17;;;;;;;1.40;1.37;;;4.20;98.00;;;;;;5072909;28;20542;-69
2021/12/20 05:47:44;;;;;;;2.00;1.50;;;4.30;98.00;;;;;;5073868;28;20521;-69
2021/12/20 05:50:12;;;;;;;1.40;1.20;;;4.40;98.00;;;;;;5073992;28;21024;-69
2021/12/20 05:52:40;;;;;;;1.20;1.10;;;4.60;98.00;;;;;;5073927;28;20497;-69
2021/12/20 05:55:09;;;;;;;1.10;1.10;;;4.70;98.00;;;;;;5073914;28;20503;-69
2021/12/20 05:57:37;;;;;;;1.80;1.53;;;4.60;98.00;;;;;;5073791;28;20540;-69
2021/12/20 06:00:08;;;;;;;1.27;1.23;;;4.50;98.00;;;;;;5073750;28;21020;-69
2021/12/20 06:02:36;;;;;;;1.10;0.90;;;4.40;98.00;;;;;;5073884;28;20466;-69
2021/12/20 06:05:06;;;;;;;1.40;1.20;;;4.30;98.00;;;;;;5073035;28;20523;-69
2021/12/20 06:07:36;;;;;;;1.27;1.10;;;4.30;98.00;;;;;;5073417;28;20519;-69
2021/12/20 06:10:04;;;;;;;1.33;1.27;;;4.30;98.00;;;;;;5073727;28;20854;-69
2021/12/20 06:12:31;;;;;;;1.70;1.10;;;4.30;98.00;;;;;;5072390;28;20795;-68
2021/12/20 06:14:58;;;;;;;1.20;1.20;;;4.30;98.00;;;;;;5073508;28;20492;-69
2021/12/20 06:17:25;;;;;;;1.20;1.10;;;4.30;98.00;;;;;;5072445;28;20936;-69
2021/12/20 06:19:53;;;;;;;5.43;1.40;;;4.30;98.00;;;;;;5073590;28;20537;-69
2021/12/20 06:22:20;;;;;;;5.00;1.83;;;4.30;98.00;;;;;;5073376;28;20571;-69
2021/12/20 06:24:47;;;;;;;1.50;1.40;;;4.30;98.00;;;;;;5073325;28;21093;-68
2021/12/20 06:27:15;;;;;;;1.20;1.10;;;4.30;98.00;;;;;;5073183;28;20993;-68
2021/12/20 06:29:42;;;;;;;1.10;1.00;;;4.50;98.00;;;;;;5073333;28;20483;-69
2021/12/20 06:32:09;;;;;;;1.40;1.33;;;4.40;98.00;;;;;;5073250;28;20811;-69
2021/12/20 06:34:37;;;;;;;3.80;2.23;;;4.30;98.00;;;;;;5073318;28;20490;-69
2021/12/20 06:37:06;;;;;;;1.10;1.00;;;4.20;98.00;;;;;;5073475;28;20542;-69
2021/12/20 06:39:34;;;;;;;1.50;1.23;;;4.10;98.00;;;;;;5073274;28;20937;-69
2021/12/20 06:42:01;;;;;;;1.53;1.47;;;4.10;98.00;;;;;;5073172;28;20498;-69
2021/12/20 06:44:28;;;;;;;1.47;1.20;;;4.20;98.00;;;;;;5072979;28;20518;-69
2021/12/20 06:46:56;;;;;;;1.10;0.90;;;4.20;98.00;;;;;;5072824;28;20491;-69
2021/12/20 06:49:23;;;;;;;1.60;1.37;;;4.30;98.00;;;;;;5071693;28;20489;-69
2021/12/20 06:51:55;;;;;;;1.30;1.20;;;4.30;98.00;;;;;;5071752;28;20457;-69
2021/12/20 06:54:25;;;;;;;1.10;1.00;;;4.40;98.00;;;;;;5072339;28;20507;-69
2021/12/20 06:56:52;;;;;;;1.73;1.70;;;4.50;98.00;;;;;;5072620;28;20494;-69
2021/12/20 06:59:19;;;;;;;1.60;1.50;;;4.50;98.00;;;;;;5071345;28;20475;-69
2021/12/20 07:01:46;;;;;;;1.20;1.10;;;4.50;98.00;;;;;;5072602;28;20541;-69
2021/12/20 07:04:14;;;;;;;1.10;1.10;;;4.50;98.00;;;;;;5072059;28;20517;-69
2021/12/20 07:06:44;;;;;;;1.60;1.30;;;4.40;98.00;;;;;;5072564;28;20460;-69
2021/12/20 07:09:11;;;;;;;1.30;1.30;;;4.50;98.00;;;;;;5071170;28;20523;-69
2021/12/20 07:11:43;;;;;;;1.10;1.00;;;4.50;98.00;;;;;;5072179;28;20501;-69
2021/12/20 07:14:11;;;;;;;1.20;1.10;;;4.40;98.00;;;;;;5072336;28;20504;-69
2021/12/20 07:16:40;;;;;;;1.60;1.20;;;4.40;98.00;;;;;;5071912;28;20549;-69
2021/12/20 07:19:07;;;;;;;1.20;1.00;;;4.40;98.00;;;;;;5071941;28;20457;-69
2021/12/20 07:21:35;;;;;;;1.40;1.37;;;4.30;98.00;;;;;;5072188;28;20504;-69
2021/12/20 07:24:01;;;;;;;1.40;1.10;;;4.40;98.00;;;;;;5072218;28;20490;-69
2021/12/20 07:26:29;;;;;;;1.47;1.40;;;4.30;98.00;;;;;;5072319;28;20549;-69
2021/12/20 07:28:58;;;;;;;1.67;1.10;;;4.30;98.00;;;;;;5070516;28;20490;-68
2021/12/20 07:31:25;;;;;;;1.67;1.50;;;4.30;98.00;;;;;;5071951;28;20534;-69
2021/12/20 07:33:53;;;;;;;1.70;1.67;;;4.20;98.00;;;;;;5072026;28;20972;-69
2021/12/20 07:36:22;;;;;;;1.10;0.90;;;4.20;98.00;;;;;;5071413;28;20512;-69
2021/12/20 07:38:50;;;;;;;1.57;1.53;;;4.30;98.00;;;;;;5071801;28;20464;-68
2021/12/20 07:41:19;;;;;;;1.20;1.10;;;4.40;98.00;;;;;;5072063;28;20515;-69
2021/12/20 07:43:48;;;;;;;1.90;1.67;;;4.60;98.00;;;;;;5071801;28;20468;-69
2021/12/20 07:46:19;;;;;;;1.43;1.20;;;4.60;98.00;;;;;;5070564;28;20850;-69
2021/12/20 07:48:47;;;;;;;1.10;1.00;;;4.50;98.00;;;;;;5071955;28;20513;-69
2021/12/20 07:51:15;;;;;;;1.30;1.13;;;4.50;98.00;;;;;;5071844;28;20450;-68
2021/12/20 07:53:42;;;;;;;1.23;1.20;;;4.40;98.00;;;;;;5071715;28;20540;-69
2021/12/20 07:56:09;;;;;;;1.67;1.67;;;4.40;98.00;;;;;;5072027;28;20447;-69
2021/12/20 07:58:36;;;;;;;1.77;1.00;;;4.30;98.00;;;;;;5071958;28;20492;-69
2021/12/20 08:01:04;;;;;;;2.50;2.37;;;4.30;98.00;;;;;;5072137;28;20494;-69
2021/12/20 08:03:34;;;;;;;1.30;1.20;;;4.20;98.00;;;;;;5071867;28;20554;-68
2021/12/20 08:06:01;;;;;;;1.70;1.30;;;4.20;98.00;;;;;;5071684;28;20540;-68
2021/12/20 08:08:28;;;;;;;1.37;1.10;;;4.20;98.00;;;;;;5071482;28;20553;-68
2021/12/20 08:10:57;;;;;;;2.33;1.83;;;4.30;98.00;;;;;;5071454;28;20874;-70
2021/12/20 08:13:24;;;;;;;1.73;1.30;;;4.30;98.00;;;;;;5070415;28;20885;-69
2021/12/20 08:15:51;;;;;;;1.20;0.97;;;4.30;98.00;;;;;;5071694;28;20522;-69
2021/12/20 08:18:20;;;;;;;2.90;1.20;;;4.50;98.00;;;;;;5068933;28;20479;-72
2021/12/20 08:20:48;;;;;;;1.10;1.00;;;4.70;98.00;;;;;;5067746;28;21016;-69
2021/12/20 08:23:16;;;;;;;1.20;1.13;;;4.90;98.00;;;;;;5068532;28;20461;-69
2021/12/20 08:25:43;;;;;;;1.10;1.00;;;4.90;98.00;;;;;;5068400;28;20529;-69
2021/12/20 08:28:10;;;;;;;6.30;1.67;;;4.90;98.00;;;;;;5068581;28;20515;-68
2021/12/20 08:30:37;;;;;;;1.53;1.53;;;4.90;98.00;;;;;;5071640;28;20616;-70
2021/12/20 08:33:06;;;;;;;1.10;1.00;;;5.00;98.00;;;;;;5059030;28;20500;-68
2021/12/20 08:35:33;;;;;;;1.47;1.40;;;5.00;98.00;;;;;;5054988;28;20455;-70
2021/12/20 08:38:02;;;;;;;1.10;1.00;;;5.10;98.00;;;;;;5055119;28;20496;-69
2021/12/20 08:40:29;;;;;;;1.33;1.23;;;5.20;98.00;;;;;;5055219;28;20649;-69
2021/12/20 08:42:57;;;;;;;1.67;1.30;;;5.20;98.00;;;;;;5055059;28;20903;-68
2021/12/20 08:45:24;;;;;;;1.20;1.10;;;5.30;98.00;;;;;;5070268;28;20516;-69
2021/12/20 08:47:51;;;;;;;1.10;0.90;;;5.30;98.00;;;;;;5062085;28;20527;-69
2021/12/20 08:50:21;;;;;;;1.67;1.57;;;5.30;98.00;;;;;;5066620;28;20502;-68
2021/12/20 08:52:48;;;;;;;1.70;1.40;;;5.30;98.00;;;;;;5071358;28;20498;-68
2021/12/20 08:55:17;;;;;;;1.20;1.13;;;5.20;98.00;;;;;;5072332;28;20493;-68
2021/12/20 08:57:45;;;;;;;1.90;1.57;;;5.10;98.00;;;;;;5072208;28;20974;-68
2021/12/20 09:00:15;;;;;;;1.30;1.03;;;5.30;98.00;;;;;;5072431;28;20542;-67
2021/12/20 09:02:43;;;;;;;1.20;1.00;;;5.30;98.00;;;;;;5070956;28;20458;-69
2021/12/20 09:05:11;;;;;;;1.20;1.00;;;5.30;98.00;;;;;;5072218;28;20589;-68
2021/12/20 09:07:40;;;;;;;1.20;1.10;;;5.30;98.00;;;;;;5070679;28;20575;-68
2021/12/20 09:10:08;;;;;;;1.20;1.20;;;5.30;98.00;;;;;;5072345;28;20459;-67
2021/12/20 09:12:37;;;;;;;1.10;1.00;;;5.40;98.00;;;;;;5072026;28;20491;-69
2021/12/20 09:15:05;;;;;;;2.97;1.60;;;5.40;98.00;;;;;;5072289;28;20488;-67
2021/12/20 09:17:33;;;;;;;1.17;1.00;;;5.50;98.00;;;;;;5072086;28;20505;-67
2021/12/20 09:20:00;;;;;;;1.53;1.43;;;5.50;98.00;;;;;;5072120;28;20542;-68
2021/12/20 09:22:30;;;;;;;1.67;1.40;;;5.60;98.00;;;;;;5072157;28;20515;-69
2021/12/20 09:24:57;;;;;;;2.13;1.53;;;5.70;98.00;;;;;;5072045;28;20501;-69
2021/12/20 09:27:24;;;;;;;1.57;1.30;;;5.80;98.00;;;;;;5071829;28;20875;-67
2021/12/20 09:29:53;;;;;;;1.20;1.00;;;5.80;98.00;;;;;;5071836;28;20529;-69
2021/12/20 09:32:20;;;;;;;1.70;1.30;;;5.70;98.00;;;;;;5071807;28;20533;-69
2021/12/20 09:34:47;;;;;;;2.50;1.77;;;5.60;98.00;;;;;;5071815;28;20556;-68
2021/12/20 09:37:14;;;;;;;1.63;1.30;;;5.60;98.00;;;;;;5071493;28;20496;-68
2021/12/20 09:39:42;;;;;;;2.53;1.20;;;5.50;98.00;;;;;;5071000;28;20457;-68
2021/12/20 09:42:12;;;;;;;1.10;1.00;;;5.70;98.00;;;;;;5070907;28;20529;-69
2021/12/20 09:44:43;;;;;;;2.23;1.30;;;5.80;98.00;;;;;;5070051;28;20486;-69
2021/12/20 09:47:12;;;;;;;2.17;1.53;;;5.90;98.00;;;;;;5071400;28;20550;-69
2021/12/20 09:49:39;;;;;;;1.53;1.43;;;6.00;98.00;;;;;;5068929;28;20541;-68
2021/12/20 09:52:07;;;;;;;9.53;2.00;;;6.00;98.00;;;;;;5071415;28;20485;-68
2021/12/20 09:54:34;;;;;;;1.30;1.10;;;6.10;98.00;;;;;;5070789;28;20487;-68
2021/12/20 09:57:06;;;;;;;1.60;1.47;;;6.20;98.00;;;;;;5071287;28;20491;-67
2021/12/20 09:59:38;;;;;;;3.30;1.43;;;6.20;98.00;;;;;;5070807;28;21032;-71
2021/12/20 10:02:09;;;;;;;1.27;1.23;;;6.30;98.00;;;;;;5070446;28;20445;-68
2021/12/20 10:04:41;;;;;;;1.20;1.10;;;6.40;98.00;;;;;;5070324;28;20972;-68
2021/12/20 10:07:08;;;;;;;2.03;1.60;;;6.50;98.00;;;;;;5070270;28;20476;-69
2021/12/20 10:09:37;;;;;;;1.27;1.23;;;6.60;98.00;;;;;;5070944;28;20469;-67
2021/12/20 10:12:17;;;;;;;1.73;1.63;;;6.60;98.00;;;;;;5071465;28;20454;-67
2021/12/20 10:15:04;;;;;;;1.93;1.83;;;6.70;98.00;;;;;;5069604;28;20487;-68
2021/12/20 10:17:35;;;;;;;2.80;1.47;;;6.70;98.00;;;;;;5070669;28;20922;-68
2021/12/20 10:20:18;;;;;;;1.40;1.00;;;6.70;98.00;;;;;;5071159;28;20496;-67
2021/12/20 10:22:45;;;;;;;1.10;1.10;;;6.60;98.00;;;;;;5070499;28;20997;-68
2021/12/20 10:25:28;;;;;;;1.67;1.30;;;6.70;98.00;;;;;;5069351;28;21083;-70
2021/12/20 10:28:05;;;;;;;2.23;1.20;;;6.70;98.00;;;;;;5069647;28;20459;-67
2021/12/20 10:30:37;;;;;;;1.20;1.00;;;6.40;98.00;;;;;;5070806;28;20462;-67
2021/12/20 10:33:06;;;;;;;1.70;1.50;;;6.10;98.00;;;;;;5070728;28;20495;-67
2021/12/20 10:35:38;;;;;;;1.63;1.37;;;6.00;98.00;;;;;;5070580;28;20463;-67
2021/12/20 10:38:07;;;;;;;1.43;1.20;;;5.90;98.00;;;;;;5070232;28;20932;-67
2021/12/20 10:40:46;;;;;;;1.30;1.30;;;5.90;98.00;;;;;;5070579;28;20481;-67
2021/12/20 10:43:15;;;;;;;1.60;1.30;;;5.90;98.00;;;;;;5062514;28;20520;-67
2021/12/20 10:45:42;;;;;;;1.50;1.23;;;5.90;98.00;;;;;;5070370;28;20548;-68
2021/12/20 10:48:11;;;;;;;2.90;1.97;;;5.90;98.00;;;;;;5070842;28;21026;-67
2021/12/20 10:50:43;;;;;;;1.20;1.07;;;5.90;98.00;;;;;;5068023;28;21042;-67
2021/12/20 10:53:18;;;;;;;5.93;1.67;;;5.90;98.00;;;;;;5070075;28;20943;-68
2021/12/20 10:55:47;;;;;;;1.60;1.20;;;6.00;98.00;;;;;;5070119;28;20465;-67
2021/12/20 10:58:32;;;;;;;4.57;1.53;;;6.10;98.00;;;;;;5070077;28;20867;-68
2021/12/20 11:01:22;;;;;;;1.47;1.30;;;6.10;98.00;;;;;;5070253;28;20543;-67
2021/12/20 11:03:58;;;;;;;1.30;1.27;;;6.10;98.00;;;;;;5062053;28;20452;-67
2021/12/20 11:09:15;;;;;;;1.50;1.40;;;6.30;98.00;;;;;;5060362;28;20983;-67
2021/12/20 11:11:48;;;;;;;1.63;1.47;;;6.30;98.00;;;;;;5069786;28;20459;-67
2021/12/20 11:14:16;;;;;;;1.60;1.40;;;6.40;98.00;;;;;;5069589;28;20512;-67
2021/12/20 11:16:44;;;;;;;2.13;1.43;;;6.70;98.00;;;;;;5069594;28;20546;-67
2021/12/20 11:19:21;;;;;;;1.20;0.97;;;6.90;98.00;;;;;;5069615;28;20490;-67
2021/12/20 11:21:55;;;;;;;1.60;1.10;;;7.20;98.00;;;;;;5069750;28;20514;-67
2021/12/20 11:24:25;;;;;;;1.70;1.10;;;7.20;98.00;;;;;;5069397;28;20464;-67
2021/12/20 11:26:52;;;;;;;1.20;1.00;;;7.30;98.00;;;;;;5069545;28;20579;-67
2021/12/20 11:29:20;;;;;;;1.20;1.00;;;7.50;98.00;;;;;;5069396;28;20553;-67
2021/12/20 11:31:48;;;;;;;1.30;1.00;;;7.60;98.00;;;;;;5069212;28;20497;-67
2021/12/20 11:34:17;;;;;;;1.70;1.30;;;7.70;98.00;;;;;;5069107;28;20531;-67
2021/12/20 11:36:45;;;;;;;1.50;1.30;;;7.70;98.00;;;;;;5071562;28;20871;-66
2021/12/20 11:39:16;;;;;;;1.40;1.37;;;7.70;98.00;;;;;;5070963;28;20518;-66
2021/12/20 11:41:43;;;;;;;1.67;1.57;;;7.60;98.00;;;;;;5069336;28;20893;-67
2021/12/20 11:44:15;;;;;;;3.83;1.73;;;7.70;98.00;;;;;;5069082;28;20460;-67
2021/12/20 11:46:51;;;;;;;1.17;1.00;;;7.60;98.00;;;;;;5069109;28;20905;-66
2021/12/20 11:49:22;;;;;;;1.20;1.00;;;7.50;98.00;;;;;;5066900;28;20501;-67
2021/12/20 11:51:56;;;;;;;2.47;1.23;;;7.30;98.00;;;;;;5068886;28;20494;-66
2021/12/20 11:54:45;;;;;;;1.17;0.90;;;7.10;98.00;;;;;;5069254;28;20543;-67
2021/12/20 11:57:47;;;;;;;1.20;1.10;;;6.90;98.00;;;;;;5060751;28;20461;-68
2021/12/20 12:00:33;;;;;;;1.60;1.50;;;6.80;98.00;;;;;;5063360;28;20469;-67
2021/12/20 12:03:06;;;;;;;2.53;1.30;;;6.70;98.00;;;;;;5068724;28;20549;-67
2021/12/20 12:05:39;;;;;;;1.20;1.00;;;6.70;98.00;;;;;;5068980;28;20515;-67
2021/12/20 12:08:34;;;;;;;1.30;1.17;;;6.80;98.00;;;;;;5069094;28;20870;-66
2021/12/20 12:11:34;;;;;;;1.20;1.00;;;6.80;98.00;;;;;;5061882;28;20865;-67
2021/12/20 12:17:01;;;;;;;1.47;1.17;;;6.80;98.00;;;;;;5069667;28;21067;-67
2021/12/20 12:19:49;;;;;;;1.20;0.90;;;6.70;98.00;;;;;;5067996;28;20453;-67
2021/12/20 12:22:37;;;;;;;1.60;1.20;;;6.70;98.00;;;;;;5063103;28;20464;-66
2021/12/20 12:25:07;;;;;;;1.17;1.00;;;6.70;98.00;;;;;;5069088;28;20968;-67
2021/12/20 12:27:37;;;;;;;1.20;1.00;;;6.70;98.00;;;;;;5069123;28;20454;-67
2021/12/20 12:30:37;;;;;;;1.40;1.20;;;6.70;98.00;;;;;;5067516;28;20454;-67
2021/12/20 12:33:25;;;;;;;1.87;1.80;;;6.60;98.00;;;;;;5067564;28;20805;-67
2021/12/20 12:35:55;;;;;;;1.33;1.10;;;6.70;98.00;;;;;;5062505;28;20484;-68
2021/12/20 12:38:25;;;;;;;1.20;0.90;;;6.70;98.00;;;;;;5068097;28;20562;-66
2021/12/20 12:41:08;;;;;;;1.50;1.20;;;6.70;98.00;;;;;;5068774;28;20455;-66
2021/12/20 12:43:50;;;;;;;1.50;1.30;;;6.70;98.00;;;;;;5068620;28;20485;-66
2021/12/20 12:46:49;;;;;;;1.20;1.07;;;6.60;98.00;;;;;;5068518;28;20491;-66
2021/12/20 12:49:39;;;;;;;1.20;0.90;;;6.50;98.00;;;;;;5059369;28;20541;-67
2021/12/20 12:52:11;;;;;;;1.20;1.00;;;6.40;98.00;;;;;;5068500;28;20860;-66
2021/12/20 12:54:42;;;;;;;1.77;1.10;;;6.30;98.00;;;;;;5068654;28;20452;-66
2021/12/20 12:57:32;;;;;;;1.20;1.00;;;6.20;98.00;;;;;;5068518;28;20481;-67
2021/12/20 13:00:09;;;;;;;1.20;1.10;;;6.30;98.00;;;;;;5068417;28;20457;-67
2021/12/20 13:02:41;;;;;;;2.70;1.10;;;6.20;98.00;;;;;;5068632;28;21044;-68
2021/12/20 13:05:15;;;;;;;1.30;1.10;;;6.10;98.00;;;;;;5068666;28;20546;-68
2021/12/20 13:07:46;;;;;;;1.20;1.00;;;6.00;98.00;;;;;;5060359;28;20494;-68
2021/12/20 13:10:17;;;;;;;1.20;1.00;;;5.90;98.00;;;;;;5068520;28;20479;-68
2021/12/20 13:12:49;;;;;;;1.20;0.90;;;6.00;98.00;;;;;;5068664;28;20514;-67
2021/12/20 13:15:24;;;;;;;1.10;0.90;;;6.00;98.00;;;;;;5069612;28;20902;-68
2021/12/20 13:17:54;;;;;;;1.20;1.00;;;5.90;98.00;;;;;;5072322;28;20972;-67
2021/12/20 13:20:27;;;;;;;1.73;1.23;;;5.80;98.00;;;;;;5070892;28;22561;-67
2021/12/20 13:23:02;;;;;;;11.67;1.23;;;5.70;98.00;;;;;;5072207;28;20815;-67
2021/12/20 13:25:38;;;;;;;1.33;1.20;;;5.90;98.00;;;;;;5071844;28;20491;-67
2021/12/20 13:28:08;;;;;;;1.43;1.20;;;5.90;98.00;;;;;;5072128;28;20452;-67